»·PEaware :: N434EP KFHR-KEAT

N434EP :: KFHR-KEAT

FLIGHT INFORMATION

Flight Status: Arrived
Operator: Privately registered:
United States
More flights under this callsign
Pilot: Drew H. (3199)
Aircraft: BEECH AIRCRAFT BARON
(BE58)
More flights by this aircraft type
Origin: KFHR Friday Harbor
United States
Destination: KEAT Pangborn Meml
United States
More flights between these airports :: More routes between these airports
Route: +FITGA EAT
File this flight plan on PilotEdge
Remarks:
Altitude:
(Current/Filed)
11,000ft
Speed:
(Current/Filed)
170kts
Departed: 10-Feb-19 09:18 PM
Arrived: 10-Feb-19 10:17 PM
Distance/Time
Traveled:
132nm/0:58
Distance/Time
To Go:
Arrived

Flight Plot

Page will automatically refresh every two minutes.

Flight plan parsing failed; only flown route is shown


Map Options




Map Legend


Flown Route
Filed Route
Departure Airport
Arrival Airport
Navaid (VOR, NDB)
Fix

Horizontal Profiles

Position Reports

Time Latitude Longitude Heading Altitude Ground
Speed
10-Feb-19 21:08 48.523609 -123.026048 124 116ft 0kts
10-Feb-19 21:09 48.523610 -123.026047 124 116ft 0kts
10-Feb-19 21:10 48.523610 -123.026047 124 116ft 0kts
10-Feb-19 21:11 48.523610 -123.026047 124 116ft 0kts
10-Feb-19 21:12 48.523610 -123.026047 124 116ft 0kts
10-Feb-19 21:13 48.523610 -123.026047 124 116ft 0kts
10-Feb-19 21:14 48.522605 -123.025663 177 116ft 15kts
10-Feb-19 21:15 48.519231 -123.024759 178 116ft 19kts
10-Feb-19 21:16 48.517518 -123.024651 178 116ft 0kts
10-Feb-19 21:17 48.518500 -123.024103 356 116ft 46kts
10-Feb-19 21:18 48.546415 -123.026004 355 1090ft 113kts
10-Feb-19 21:19 48.543866 -123.061598 187 2267ft 150kts
10-Feb-19 21:20 48.511481 -123.025562 132 3501ft 149kts
10-Feb-19 21:21 48.480014 -122.983492 144 4656ft 154kts
10-Feb-19 21:22 48.445630 -122.945337 148 5803ft 153kts
10-Feb-19 21:23 48.411342 -122.907499 152 6763ft 153kts
10-Feb-19 21:24 48.378488 -122.871222 154 7604ft 140kts
10-Feb-19 21:25 48.348092 -122.837807 154 8331ft 132kts
10-Feb-19 21:26 48.316972 -122.803710 153 8943ft 142kts
10-Feb-19 21:27 48.284396 -122.767887 154 9668ft 146kts
10-Feb-19 21:28 48.251371 -122.731652 154 10372ft 148kts
10-Feb-19 21:29 48.219627 -122.689451 148 11049ft 154kts
10-Feb-19 21:30 48.185122 -122.642090 146 11041ft 180kts
10-Feb-19 21:31 48.149052 -122.592022 147 11041ft 171kts
10-Feb-19 21:32 48.114479 -122.544371 147 11042ft 167kts
10-Feb-19 21:33 48.080115 -122.497086 147 11149ft 165kts
10-Feb-19 21:34 48.047148 -122.451771 148 11533ft 160kts
10-Feb-19 21:35 48.014176 -122.406589 148 11922ft 160kts
10-Feb-19 21:36 47.981123 -122.361376 148 12339ft 161kts
10-Feb-19 21:37 47.948272 -122.316516 149 12713ft 161kts
10-Feb-19 21:38 47.914670 -122.272179 153 12989ft 164kts
10-Feb-19 21:39 47.877851 -122.229681 153 12988ft 173kts
10-Feb-19 21:40 47.839353 -122.185505 153 12987ft 175kts
10-Feb-19 21:41 47.800457 -122.141008 153 12989ft 176kts
10-Feb-19 21:42 47.761575 -122.096631 153 12991ft 176kts
10-Feb-19 21:43 47.724005 -122.053839 153 12994ft 176kts
10-Feb-19 21:44 47.684986 -122.009471 153 12996ft 176kts
10-Feb-19 21:45 47.646506 -121.965784 153 13096ft 173kts
10-Feb-19 21:46 47.607909 -121.922120 153 13098ft 175kts
10-Feb-19 21:47 47.569664 -121.876310 127 13092ft 189kts
10-Feb-19 21:48 47.557976 -121.797100 107 13098ft 198kts
10-Feb-19 21:49 47.546926 -121.717161 108 13098ft 198kts
10-Feb-19 21:50 47.535622 -121.637065 108 13099ft 198kts
10-Feb-19 21:51 47.524060 -121.555944 107 12865ft 207kts
10-Feb-19 21:52 47.512550 -121.475050 108 12852ft 200kts
10-Feb-19 21:53 47.501006 -121.394692 108 12862ft 198kts
10-Feb-19 21:54 47.489730 -121.316586 109 12878ft 197kts
10-Feb-19 21:55 47.478255 -121.237486 109 12899ft 196kts
10-Feb-19 21:56 47.466692 -121.158393 108 12913ft 196kts
10-Feb-19 21:57 47.457123 -121.077487 104 12423ft 199kts
10-Feb-19 21:58 47.448009 -120.997376 104 11901ft 195kts
10-Feb-19 21:59 47.439116 -120.919346 104 11575ft 184kts
10-Feb-19 22:00 47.430741 -120.846762 104 11579ft 176kts
10-Feb-19 22:01 47.422478 -120.775473 104 11579ft 175kts
10-Feb-19 22:02 47.414325 -120.705446 104 11582ft 171kts
10-Feb-19 22:03 47.434373 -120.657139 348 11477ft 169kts
10-Feb-19 22:04 47.482685 -120.663892 355 11067ft 179kts
10-Feb-19 22:05 47.531661 -120.641342 24 10335ft 189kts
10-Feb-19 22:06 47.574709 -120.597108 34 9256ft 187kts
10-Feb-19 22:07 47.615206 -120.550324 46 8111ft 182kts
10-Feb-19 22:08 47.602702 -120.501803 147 7694ft 134kts
10-Feb-19 22:09 47.573482 -120.464379 139 6924ft 141kts
10-Feb-19 22:10 47.545099 -120.423050 139 6015ft 149kts
10-Feb-19 22:11 47.514781 -120.378306 137 5012ft 156kts
10-Feb-19 22:13 47.486131 -120.335955 137 4053ft 133kts
10-Feb-19 22:14 47.460457 -120.298066 136 3183ft 132kts
10-Feb-19 22:15 47.434979 -120.260415 135 2335ft 127kts
10-Feb-19 22:16 47.410024 -120.223600 135 1515ft 125kts
10-Feb-19 22:17 47.395903 -120.202723 134 1253ft 33kts
10-Feb-19 22:18 47.398058 -120.202897 314 1253ft 15kts
10-Feb-19 22:19 47.401222 -120.207570 314 1253ft 16kts
10-Feb-19 22:20 47.401826 -120.207283 135 1253ft 0kts

Navigation Log

Ident Type
Flight plan parsing failed, navigation log unavailable